createdAt,value
2023-05-25T00:00:33.406Z,9.89
2023-05-25T00:03:04.674Z,9.84
2023-05-25T00:05:43.075Z,9.92
2023-05-25T00:08:12.230Z,9.76
2023-05-25T00:11:09.867Z,9.86
2023-05-25T00:13:40.062Z,9.81
2023-05-25T00:16:14.632Z,9.84
2023-05-25T00:18:44.753Z,9.71
2023-05-25T00:21:16.370Z,9.62
2023-05-25T00:23:46.531Z,9.61
2023-05-25T00:26:19.350Z,9.58
2023-05-25T00:28:48.568Z,9.63
2023-05-25T00:31:24.472Z,9.59
2023-05-25T00:33:56.764Z,9.71
2023-05-25T00:36:25.861Z,9.69
2023-05-25T00:38:58.525Z,9.68
2023-05-25T00:41:33.455Z,9.57
2023-05-25T00:44:05.535Z,9.67
2023-05-25T00:46:35.099Z,9.70
2023-05-25T00:49:08.337Z,9.72
2023-05-25T00:51:39.512Z,9.63
2023-05-25T00:54:15.052Z,9.56
2023-05-25T00:56:49.109Z,9.61
2023-05-25T00:59:23.823Z,9.55
2023-05-25T01:01:55.697Z,9.59
2023-05-25T01:04:28.948Z,9.55
2023-05-25T01:07:04.064Z,9.60
2023-05-25T01:09:39.978Z,9.64
2023-05-25T01:12:13.119Z,9.58
2023-05-25T01:14:42.753Z,9.43
2023-05-25T01:17:14.839Z,9.48
2023-05-25T01:19:54.814Z,9.37
2023-05-25T01:22:36.207Z,9.22
2023-05-25T01:25:17.135Z,9.05
2023-05-25T01:27:49.325Z,9.07
2023-05-25T01:30:25.902Z,9.08
2023-05-25T01:32:56.093Z,9.11
2023-05-25T01:35:26.981Z,9.07
2023-05-25T01:38:00.405Z,9.08
2023-05-25T01:40:36.548Z,9.06
2023-05-25T01:43:06.496Z,8.99
2023-05-25T01:45:40.180Z,9.02
2023-05-25T01:48:16.464Z,9.08
2023-05-25T01:50:49.538Z,9.14
2023-05-25T01:53:24.334Z,9.10
2023-05-25T01:55:56.513Z,9.06
2023-05-25T01:58:33.703Z,9.12
2023-05-25T02:01:09.050Z,9.18
2023-05-25T02:03:40.512Z,9.21
2023-05-25T02:06:11.262Z,9.20
2023-05-25T02:08:46.829Z,9.06
2023-05-25T02:11:18.006Z,9.09
2023-05-25T02:13:48.313Z,8.87
2023-05-25T02:16:21.408Z,9.04
2023-05-25T02:18:53.481Z,9.13
2023-05-25T02:21:26.990Z,9.11
2023-05-25T02:23:59.586Z,9.08
2023-05-25T02:26:31.253Z,9.06
2023-05-25T02:29:04.607Z,9.08
2023-05-25T02:31:36.690Z,9.00
2023-05-25T02:34:05.835Z,8.93
2023-05-25T02:36:36.855Z,8.87
2023-05-25T02:39:07.855Z,8.94
2023-05-25T02:41:45.141Z,8.95
2023-05-25T02:44:16.024Z,8.91
2023-05-25T02:46:47.663Z,8.92
2023-05-25T02:49:16.962Z,8.92
2023-05-25T02:51:48.373Z,8.87
2023-05-25T02:54:21.677Z,8.92
2023-05-25T02:56:51.951Z,8.96
2023-05-25T02:59:26.169Z,8.97
2023-05-25T03:01:56.758Z,9.00
2023-05-25T03:04:26.321Z,8.98
2023-05-25T03:06:56.593Z,8.91
2023-05-25T03:09:28.765Z,8.98
2023-05-25T03:11:57.936Z,8.99
2023-05-25T03:14:29.715Z,9.04
2023-05-25T03:17:03.176Z,9.02
2023-05-25T03:19:42.727Z,9.00
2023-05-25T03:22:23.367Z,9.05
2023-05-25T03:24:56.347Z,9.06
2023-05-25T03:27:26.290Z,9.02
2023-05-25T03:30:03.230Z,8.97
2023-05-25T03:32:38.266Z,9.05
2023-05-25T03:35:08.549Z,9.08
2023-05-25T03:37:40.251Z,9.06
2023-05-25T03:40:16.589Z,9.00
2023-05-25T03:42:48.451Z,9.01
2023-05-25T03:45:18.857Z,9.02
2023-05-25T03:47:53.745Z,8.94
2023-05-25T03:50:27.633Z,8.93
2023-05-25T03:52:58.054Z,9.02
2023-05-25T03:55:34.107Z,9.09
2023-05-25T03:58:04.791Z,9.11
2023-05-25T04:00:34.420Z,9.11
2023-05-25T04:03:05.676Z,9.10
2023-05-25T04:05:36.214Z,9.06
2023-05-25T04:08:08.742Z,9.14
2023-05-25T04:10:44.369Z,9.16
2023-05-25T04:13:18.071Z,9.05
2023-05-25T04:15:51.335Z,9.22
2023-05-25T04:18:21.443Z,9.23
2023-05-25T04:20:51.685Z,9.34
2023-05-25T04:23:24.132Z,9.33
2023-05-25T04:26:04.855Z,9.28
2023-05-25T04:28:34.505Z,9.46
2023-05-25T04:31:07.898Z,9.45
2023-05-25T04:33:39.384Z,9.50
2023-05-25T04:36:11.327Z,9.57
2023-05-25T04:38:48.778Z,9.59
2023-05-25T04:41:25.644Z,9.68
2023-05-25T04:46:37.816Z,9.64
2023-05-25T04:49:10.623Z,9.66
2023-05-25T04:51:39.530Z,9.89
2023-05-25T04:54:09.902Z,9.78
2023-05-25T04:56:44.207Z,9.84
2023-05-25T04:59:16.024Z,9.89
2023-05-25T05:01:46.047Z,9.98
2023-05-25T05:04:18.538Z,10.04
2023-05-25T05:06:47.677Z,10.12
2023-05-25T05:09:21.071Z,10.23
2023-05-25T05:11:57.564Z,10.40
2023-05-25T05:14:28.456Z,10.27
2023-05-25T05:16:58.374Z,10.40
2023-05-25T05:19:28.621Z,10.54
2023-05-25T05:21:57.918Z,10.64
2023-05-25T05:24:28.144Z,10.83
2023-05-25T05:27:08.536Z,10.67
2023-05-25T05:29:40.409Z,10.65
2023-05-25T05:32:09.664Z,10.71
2023-05-25T05:34:41.772Z,10.74
2023-05-25T05:37:11.654Z,10.69
2023-05-25T05:39:40.624Z,10.90
2023-05-25T05:42:12.307Z,10.81
2023-05-25T05:44:44.427Z,10.99
2023-05-25T05:47:13.823Z,11.02
2023-05-25T05:50:14.075Z,11.05
2023-05-25T05:52:51.059Z,11.18
2023-05-25T05:55:28.532Z,11.04
2023-05-25T05:58:06.664Z,11.08
2023-05-25T06:00:37.325Z,11.32
2023-05-25T06:06:06.200Z,11.75
2023-05-25T06:08:35.737Z,11.87
2023-05-25T06:11:06.014Z,11.81
2023-05-25T06:13:34.914Z,11.77
2023-05-25T06:16:08.409Z,11.73
2023-05-25T06:18:38.119Z,11.98
2023-05-25T06:21:09.803Z,11.89
2023-05-25T06:23:43.689Z,11.81
2023-05-25T06:26:15.674Z,12.03
2023-05-25T06:28:47.116Z,11.91
2023-05-25T06:31:18.818Z,12.04
2023-05-25T06:33:52.131Z,12.17
2023-05-25T06:36:27.430Z,11.98
2023-05-25T06:39:00.078Z,11.92
2023-05-25T06:41:31.487Z,12.07
2023-05-25T06:44:02.415Z,11.99
2023-05-25T06:46:33.097Z,12.13
2023-05-25T06:49:03.126Z,12.19
2023-05-25T06:51:37.442Z,12.23
2023-05-25T06:54:09.573Z,12.36
2023-05-25T06:56:39.934Z,12.52
2023-05-25T06:59:09.040Z,12.52
2023-05-25T07:01:40.371Z,12.64
2023-05-25T07:04:09.713Z,12.97
2023-05-25T07:06:57.085Z,13.04
2023-05-25T07:09:26.200Z,13.06
2023-05-25T07:11:55.058Z,12.87
2023-05-25T07:14:27.097Z,13.03
2023-05-25T07:16:56.349Z,13.11
2023-05-25T07:19:30.806Z,12.93
2023-05-25T07:22:16.115Z,12.88
2023-05-25T07:24:47.195Z,12.89
2023-05-25T07:27:19.969Z,13.14
2023-05-25T07:29:52.973Z,13.23
2023-05-25T07:32:22.740Z,13.01
2023-05-25T07:34:52.064Z,12.89
2023-05-25T07:37:23.518Z,12.98
2023-05-25T07:39:53.347Z,12.72
2023-05-25T07:42:24.153Z,12.92
2023-05-25T07:44:57.624Z,13.14
2023-05-25T07:47:27.503Z,13.24
2023-05-25T07:49:57.645Z,13.42
2023-05-25T07:52:28.462Z,13.22
2023-05-25T07:55:00.760Z,13.39
2023-05-25T07:57:30.465Z,13.63
2023-05-25T08:00:01.722Z,13.61
2023-05-25T08:05:16.672Z,13.48
2023-05-25T08:10:35.292Z,13.55
2023-05-25T08:13:06.781Z,13.92
2023-05-25T08:15:45.611Z,13.98
2023-05-25T08:18:15.646Z,14.23
2023-05-25T08:20:44.976Z,14.28
2023-05-25T08:23:19.184Z,14.26
2023-05-25T08:25:51.426Z,14.55
2023-05-25T08:28:21.438Z,14.54
2023-05-25T08:30:54.603Z,14.58
2023-05-25T08:33:32.176Z,14.87
2023-05-25T08:36:01.876Z,14.80
2023-05-25T08:38:33.082Z,14.53
2023-05-25T08:41:07.379Z,14.47
2023-05-25T08:43:39.113Z,14.58
2023-05-25T08:46:15.509Z,14.62
2023-05-25T08:48:47.231Z,14.47
2023-05-25T08:51:17.924Z,14.54
2023-05-25T08:53:51.477Z,14.45
2023-05-25T08:56:22.343Z,14.15
2023-05-25T08:58:56.419Z,14.49
2023-05-25T09:01:26.821Z,14.17
2023-05-25T09:03:56.099Z,14.22
2023-05-25T09:06:29.417Z,14.61
2023-05-25T09:09:01.317Z,14.49
2023-05-25T09:11:39.250Z,14.41
2023-05-25T09:14:11.714Z,14.85
2023-05-25T09:16:41.880Z,15.02
2023-05-25T09:19:12.680Z,15.24
2023-05-25T09:21:42.072Z,15.19
2023-05-25T09:24:12.610Z,14.62
2023-05-25T09:26:41.988Z,14.88
2023-05-25T09:29:14.065Z,14.94
2023-05-25T09:31:43.400Z,15.24
2023-05-25T09:34:14.452Z,15.18
2023-05-25T09:36:44.447Z,14.97
2023-05-25T09:39:17.572Z,15.28
2023-05-25T09:41:48.977Z,14.95
2023-05-25T09:44:22.120Z,15.42
2023-05-25T09:46:51.752Z,15.53
2023-05-25T09:49:25.832Z,15.44
2023-05-25T09:51:55.886Z,15.10
2023-05-25T09:54:27.782Z,14.87
2023-05-25T09:57:06.099Z,15.54
2023-05-25T09:59:48.914Z,14.85
2023-05-25T10:02:19.660Z,15.02
2023-05-25T10:07:41.329Z,15.10
2023-05-25T10:10:13.311Z,15.66
2023-05-25T10:12:44.688Z,15.38
2023-05-25T10:15:20.427Z,14.83
2023-05-25T10:17:55.234Z,15.35
2023-05-25T10:20:32.768Z,15.63
2023-05-25T10:23:07.683Z,15.87
2023-05-25T10:25:46.430Z,15.07
2023-05-25T10:28:23.756Z,15.60
2023-05-25T10:30:56.009Z,15.34
2023-05-25T10:33:26.824Z,15.28
2023-05-25T10:36:10.169Z,15.15
2023-05-25T10:38:42.656Z,15.29
2023-05-25T10:41:16.645Z,15.64
2023-05-25T10:43:49.754Z,15.69
2023-05-25T10:46:23.374Z,15.78
2023-05-25T10:48:54.294Z,15.40
2023-05-25T10:51:29.263Z,15.57
2023-05-25T10:54:03.879Z,15.64
2023-05-25T10:56:35.459Z,15.60
2023-05-25T10:59:17.204Z,15.23
2023-05-25T11:01:53.053Z,15.34
2023-05-25T11:04:23.415Z,15.23
2023-05-25T11:07:17.324Z,15.00
2023-05-25T11:10:02.101Z,14.93
2023-05-25T11:12:40.292Z,15.00
2023-05-25T11:15:16.140Z,14.89
2023-05-25T11:18:00.634Z,15.22
2023-05-25T11:20:30.772Z,15.09
2023-05-25T11:23:07.904Z,14.80
2023-05-25T11:25:41.132Z,15.24
2023-05-25T11:28:15.166Z,15.16
2023-05-25T11:30:46.711Z,15.40
2023-05-25T11:33:17.346Z,15.29
2023-05-25T11:35:49.256Z,15.49
2023-05-25T11:38:20.371Z,15.40
2023-05-25T11:40:54.271Z,15.35
2023-05-25T11:43:41.046Z,15.12
2023-05-25T11:46:24.531Z,15.12
2023-05-25T11:49:02.570Z,14.55
2023-05-25T11:51:33.271Z,15.32
2023-05-25T11:54:07.128Z,15.19
2023-05-25T11:56:37.872Z,15.41
2023-05-25T11:59:12.338Z,15.09
2023-05-25T12:01:42.489Z,15.53
2023-05-25T12:04:13.647Z,15.40
2023-05-25T12:06:42.894Z,15.14
2023-05-25T12:09:15.413Z,15.03
2023-05-25T12:12:05.636Z,15.02
2023-05-25T12:14:45.710Z,15.21
2023-05-25T12:17:18.569Z,14.87
2023-05-25T12:19:50.823Z,15.20
2023-05-25T12:22:21.674Z,15.43
2023-05-25T12:24:51.958Z,15.60
2023-05-25T12:27:23.412Z,15.75
2023-05-25T12:29:54.892Z,15.53
2023-05-25T12:32:25.469Z,15.76
2023-05-25T12:35:04.342Z,15.42
2023-05-25T12:37:34.137Z,15.75
2023-05-25T12:40:04.039Z,16.19
2023-05-25T12:42:35.295Z,16.28
2023-05-25T12:45:10.065Z,16.10
2023-05-25T12:47:39.584Z,16.07
2023-05-25T12:50:13.868Z,16.07
2023-05-25T12:52:44.733Z,16.14
2023-05-25T12:55:26.162Z,15.81
2023-05-25T12:57:58.550Z,16.41
2023-05-25T13:00:30.457Z,16.18
2023-05-25T13:03:02.300Z,16.73
2023-05-25T13:05:34.452Z,16.36
2023-05-25T13:08:05.370Z,15.87
2023-05-25T13:10:37.149Z,16.60
2023-05-25T13:13:07.080Z,16.70
2023-05-25T13:15:42.348Z,17.14
2023-05-25T13:18:14.086Z,16.87
2023-05-25T13:20:51.278Z,16.87
2023-05-25T13:23:25.798Z,16.94
2023-05-25T13:25:56.309Z,16.69
2023-05-25T13:28:25.666Z,17.17
2023-05-25T13:30:59.473Z,17.05
2023-05-25T13:33:28.942Z,17.17
2023-05-25T13:36:08.606Z,17.13
2023-05-25T13:38:39.252Z,17.70
2023-05-25T13:41:09.462Z,17.66
2023-05-25T13:43:42.596Z,17.62
2023-05-25T13:46:30.065Z,17.61
2023-05-25T13:49:03.778Z,18.21
2023-05-25T13:51:35.875Z,18.05
2023-05-25T13:54:06.950Z,17.63
2023-05-25T13:56:37.145Z,17.57
2023-05-25T13:59:08.027Z,18.03
2023-05-25T14:01:49.674Z,16.75
2023-05-25T14:04:19.136Z,16.77
2023-05-25T14:06:50.717Z,16.92
2023-05-25T14:09:23.132Z,17.27
2023-05-25T14:11:57.202Z,17.24
2023-05-25T14:14:32.078Z,17.07
2023-05-25T14:17:04.443Z,17.34
2023-05-25T14:19:35.301Z,17.30
2023-05-25T14:22:14.163Z,17.05
2023-05-25T14:24:44.897Z,17.26
2023-05-25T14:27:16.860Z,17.39
2023-05-25T14:29:50.648Z,18.08
2023-05-25T14:32:23.831Z,17.77
2023-05-25T14:34:56.635Z,17.75
2023-05-25T14:37:28.709Z,17.58
2023-05-25T14:39:58.944Z,17.54
2023-05-25T14:42:29.520Z,17.93
2023-05-25T14:47:44.823Z,17.60
2023-05-25T14:50:16.859Z,17.30
2023-05-25T14:52:47.033Z,17.85
2023-05-25T14:55:18.033Z,17.93
2023-05-25T14:57:48.482Z,18.18
2023-05-25T15:00:28.701Z,17.58
2023-05-25T15:03:01.418Z,18.01
2023-05-25T15:05:32.865Z,17.66
2023-05-25T15:08:05.758Z,17.99
2023-05-25T15:10:38.142Z,17.83
2023-05-25T15:13:07.623Z,18.26
2023-05-25T15:15:39.063Z,18.42
2023-05-25T15:18:22.362Z,18.58
2023-05-25T15:20:56.844Z,18.28
2023-05-25T15:23:35.779Z,17.82
2023-05-25T15:26:56.087Z,17.95
2023-05-25T15:29:40.062Z,17.93
2023-05-25T15:32:17.735Z,17.37
2023-05-25T15:35:01.207Z,18.41
2023-05-25T15:37:30.660Z,18.13
2023-05-25T15:40:01.398Z,18.54
2023-05-25T15:42:31.505Z,16.90
2023-05-25T15:45:01.587Z,17.66
2023-05-25T15:47:32.922Z,17.68
2023-05-25T15:50:03.848Z,17.87
2023-05-25T15:52:36.629Z,17.86
2023-05-25T15:55:07.240Z,17.34
2023-05-25T15:57:36.579Z,17.63
2023-05-25T16:00:05.982Z,17.57
2023-05-25T16:02:35.234Z,17.94
2023-05-25T16:05:07.416Z,17.72
2023-05-25T16:07:42.056Z,17.67
2023-05-25T16:10:15.392Z,17.42
2023-05-25T16:12:45.920Z,17.41
2023-05-25T16:15:14.814Z,16.54
2023-05-25T16:17:46.554Z,16.77
2023-05-25T16:20:19.176Z,16.82
2023-05-25T16:22:49.394Z,17.06
2023-05-25T16:25:19.595Z,16.65
2023-05-25T16:27:48.527Z,16.62
2023-05-25T16:30:19.073Z,16.59
2023-05-25T16:32:51.313Z,16.22
2023-05-25T16:35:22.121Z,16.51
2023-05-25T16:37:51.373Z,15.97
2023-05-25T16:40:22.401Z,16.16
2023-05-25T16:42:51.832Z,15.88
2023-05-25T16:45:22.001Z,16.24
2023-05-25T16:47:52.877Z,16.23
2023-05-25T16:50:32.128Z,16.25
2023-05-25T16:53:02.775Z,16.53
2023-05-25T16:55:38.369Z,16.37
2023-05-25T16:58:15.527Z,16.37
2023-05-25T17:00:44.651Z,16.36
2023-05-25T17:03:16.114Z,16.12
2023-05-25T17:05:51.426Z,16.12
2023-05-25T17:08:29.849Z,16.07
2023-05-25T17:11:16.243Z,15.89
2023-05-25T17:13:52.479Z,15.85
2023-05-25T17:16:22.049Z,16.04
2023-05-25T17:18:51.978Z,15.86
2023-05-25T17:21:33.787Z,15.91
2023-05-25T17:24:04.960Z,15.78
2023-05-25T17:26:36.533Z,15.62
2023-05-25T17:29:06.955Z,15.67
2023-05-25T17:31:38.807Z,15.70
2023-05-25T17:34:12.521Z,15.79
2023-05-25T17:36:45.779Z,15.57
2023-05-25T17:39:22.745Z,15.69
2023-05-25T17:41:54.921Z,15.73
2023-05-25T17:44:24.353Z,15.57
2023-05-25T17:46:55.212Z,15.54
2023-05-25T17:49:27.933Z,15.46
2023-05-25T17:51:58.851Z,15.55
2023-05-25T17:54:31.683Z,15.31
2023-05-25T17:57:02.050Z,15.40
2023-05-25T17:59:31.444Z,14.94
2023-05-25T18:02:06.198Z,14.97
2023-05-25T18:04:37.856Z,15.06
2023-05-25T18:07:08.498Z,15.06
2023-05-25T18:09:43.263Z,14.82
2023-05-25T18:12:16.781Z,14.93
2023-05-25T18:14:49.828Z,14.91
2023-05-25T18:17:28.570Z,14.90
2023-05-25T18:19:59.633Z,14.76
2023-05-25T18:22:34.216Z,14.81
2023-05-25T18:28:03.864Z,14.54
2023-05-25T18:30:36.156Z,14.76
2023-05-25T18:33:08.341Z,14.50
2023-05-25T18:35:38.349Z,14.40
2023-05-25T18:38:12.754Z,14.56
2023-05-25T18:40:45.718Z,14.38
2023-05-25T18:43:16.059Z,14.58
2023-05-25T18:45:47.675Z,14.42
2023-05-25T18:48:19.575Z,14.22
2023-05-25T18:50:50.829Z,14.34
2023-05-25T18:53:23.473Z,14.09
2023-05-25T18:55:53.337Z,14.17
2023-05-25T18:58:39.978Z,14.06
2023-05-25T19:01:17.363Z,14.08
2023-05-25T19:03:52.028Z,14.09
2023-05-25T19:06:32.431Z,14.08
2023-05-25T19:09:09.885Z,13.99
2023-05-25T19:11:48.061Z,13.89
2023-05-25T19:14:17.527Z,13.90
2023-05-25T19:16:48.753Z,13.82
2023-05-25T19:19:21.829Z,13.59
2023-05-25T19:21:55.050Z,13.58
2023-05-25T19:24:31.485Z,13.66
2023-05-25T19:27:01.942Z,13.63
2023-05-25T19:29:36.139Z,13.54
2023-05-25T19:32:07.618Z,13.64
2023-05-25T19:34:40.343Z,13.61
2023-05-25T19:37:11.670Z,13.36
2023-05-25T19:39:51.214Z,13.32
2023-05-25T19:42:22.919Z,13.38
2023-05-25T19:44:56.971Z,13.37
2023-05-25T19:47:28.146Z,13.31
2023-05-25T19:50:00.084Z,13.24
2023-05-25T19:52:38.190Z,13.24
2023-05-25T19:55:16.236Z,13.28
2023-05-25T19:57:50.746Z,13.20
2023-05-25T20:00:26.571Z,13.18
2023-05-25T20:02:58.416Z,13.01
2023-05-25T20:05:30.604Z,12.94
2023-05-25T20:07:59.626Z,12.95
2023-05-25T20:10:40.723Z,12.84
2023-05-25T20:13:16.921Z,12.76
2023-05-25T20:15:47.250Z,12.74
2023-05-25T20:18:19.765Z,12.69
2023-05-25T20:20:49.564Z,12.74
2023-05-25T20:23:21.350Z,12.74
2023-05-25T20:26:01.653Z,12.66
2023-05-25T20:28:40.049Z,12.57
2023-05-25T20:31:17.312Z,12.54
2023-05-25T20:33:47.605Z,12.64
2023-05-25T20:36:18.720Z,12.47
2023-05-25T20:38:51.075Z,12.51
2023-05-25T20:41:24.042Z,12.49
2023-05-25T20:43:54.399Z,12.42
2023-05-25T20:46:24.672Z,12.26
2023-05-25T20:48:57.360Z,12.28
2023-05-25T20:51:29.462Z,12.30
2023-05-25T20:54:01.073Z,12.28
2023-05-25T20:56:47.928Z,12.25
2023-05-25T20:59:33.556Z,12.15
2023-05-25T21:02:11.676Z,12.11
2023-05-25T21:04:44.488Z,12.11
2023-05-25T21:07:16.211Z,11.94
2023-05-25T21:09:49.155Z,11.99
2023-05-25T21:12:21.884Z,11.91
2023-05-25T21:14:53.500Z,11.75
2023-05-25T21:17:25.352Z,11.81
2023-05-25T21:19:55.738Z,11.83
2023-05-25T21:22:26.147Z,11.81
2023-05-25T21:25:00.279Z,11.89
2023-05-25T21:27:34.245Z,11.71
2023-05-25T21:30:04.899Z,11.79
2023-05-25T21:32:36.560Z,11.77
2023-05-25T21:35:09.858Z,11.75
2023-05-25T21:37:50.518Z,11.71
2023-05-25T21:40:26.276Z,11.69
2023-05-25T21:42:57.944Z,11.76
2023-05-25T21:45:29.913Z,11.75
2023-05-25T21:48:01.021Z,11.74
2023-05-25T21:50:32.751Z,11.74
2023-05-25T21:53:03.567Z,11.81
2023-05-25T21:55:37.131Z,11.77
2023-05-25T21:58:10.376Z,11.69
2023-05-25T22:00:40.039Z,11.51
2023-05-25T22:03:15.029Z,11.50
2023-05-25T22:08:35.908Z,11.42
2023-05-25T22:11:05.476Z,11.36
2023-05-25T22:13:38.876Z,11.32
2023-05-25T22:16:09.835Z,11.37
2023-05-25T22:18:40.632Z,11.31
2023-05-25T22:21:10.598Z,11.32
2023-05-25T22:23:42.517Z,11.28
2023-05-25T22:26:13.023Z,11.28
2023-05-25T22:28:45.609Z,11.22
2023-05-25T22:31:15.622Z,11.08
2023-05-25T22:33:45.083Z,11.08
2023-05-25T22:36:16.579Z,10.99
2023-05-25T22:38:48.953Z,10.95
2023-05-25T22:41:23.510Z,11.02
2023-05-25T22:44:06.487Z,10.91
2023-05-25T22:46:46.453Z,10.98
2023-05-25T22:49:17.114Z,10.92
2023-05-25T22:51:48.748Z,10.85
2023-05-25T22:54:19.618Z,10.84
2023-05-25T22:56:50.002Z,10.73
2023-05-25T22:59:29.769Z,10.72
2023-05-25T23:02:01.093Z,10.69
2023-05-25T23:04:38.416Z,10.74
2023-05-25T23:07:16.021Z,10.70
2023-05-25T23:09:46.505Z,10.62
2023-05-25T23:12:20.499Z,10.53
2023-05-25T23:14:54.974Z,10.52
2023-05-25T23:17:24.110Z,10.54
2023-05-25T23:19:58.467Z,10.39
2023-05-25T23:22:29.564Z,10.47
2023-05-25T23:25:00.997Z,10.37
2023-05-25T23:27:32.900Z,10.38
2023-05-25T23:30:04.331Z,10.27
2023-05-25T23:32:33.752Z,10.29
2023-05-25T23:35:19.369Z,10.34
2023-05-25T23:37:53.801Z,10.21
2023-05-25T23:40:25.122Z,10.16
2023-05-25T23:42:55.677Z,10.19
2023-05-25T23:45:26.837Z,10.07
2023-05-25T23:47:57.545Z,10.08
2023-05-25T23:50:27.031Z,10.03
2023-05-25T23:52:58.024Z,9.88
2023-05-25T23:55:30.081Z,10.05
2023-05-25T23:58:00.822Z,9.93
